AirNav   TITAN Aviation Fuels
 
 1232 users online  

5KY1 Flaget Memorial Hospital Heliport
Bardstown, Kentucky, USA

GOING TO BARDSTOWN?


FAA INFORMATION EFFECTIVE 19 MAY 2022

Location

FAA Identifier: 5KY1
Lat/Long: 37-51-39.9100N 085-31-23.3100W
37-51.665167N 085-31.388500W
37.8610861,-85.5231417
(estimated)
Elevation: 722 ft. / 220 m (estimated)
From city: 4 miles NW of BARDSTOWN, KY
Time zone: UTC -4 (UTC -5 during Standard Time)
Zip code: 40013

Heliport Operations

Heliport use: Private use. Permission required prior to landing
Activation date: 05/2010
Control tower: no
ARTCC: INDIANAPOLIS CENTER
FSS: LOUISVILLE FLIGHT SERVICE STATION
Attendance: UNATNDD
Wind indicator: yes
Segmented circle: no
Lights: SS-SR

Heliport Communications

WX AWOS-3 at BRY (3 nm S): 119.925 (502-348-1867)
WX AWOS-3P at 6I2 (19 nm SE): 119.725 (859-336-0340)

Nearby radio navigation aids

VOR radial/distance  VOR name  Freq  Var
IIUr169/14.8LOUISVILLE VORTAC114.8001E
EWOr027/15.5NEW HOPE VOR/DME110.8001E
FTKr098/21.5FORT KNOX VOR/DME109.6001W
MYSr094/(34.2)MYSTIC VOR108.2001W
FFTr239/(34.9)FRANKFORT VOR109.4003W

 
NDB name  Hdg/Dist  Freq  Var  ID
GODMAN108/22.339603WGOI --. --- ..
GOODALL298/39.931103WDVK -.. ...- -.-

Heliport Services

Runway Information

Helipad H1

Dimensions: 40 x 40 ft. / 12 x 12 m
Surface: concrete
Runway edge lights: PERI
Latitude: 37-51.665167N
Longitude: 085-31.388500W
Elevation: 722.0 ft.
Traffic pattern: leftleft

Heliport Ownership and Management from official FAA records

Ownership: Privately-owned
Owner: FLAGET MEMORIAL HOSPITAL
4305 NEW SHEPHERDSVILLE RD
BARDSTOWN, KY 40004
Phone 502-350-5000
Manager: JENNIFER NOLAN
4305 NEW SHEPHERDSVILLE RD
BARDSTOWN, KY 40004
Phone 502-350-5100

Additional Remarks

OWNER DESIRES ARPT NOT BE CHARTED.
FOR CD CTC LOUISVILLE APCH AT 502-375-7499

Instrument Procedures

There are no published instrument procedures at 5KY1.

Some nearby airports with instrument procedures:

KBRY - Samuels Field Airport (3 nm S)
6I2 - Lebanon Springfield Airport-George Hoerter Field (19 nm SE)
KSDF - Louisville Muhammad Ali International Airport (21 nm NW)
KFTK - Godman Army Airfield (21 nm W)
KEKX - Addington Field Airport (22 nm SW)
 
Loc | Ops | Rwys | IFR | FBO | Links
Com | Nav | Svcs | Stats | Notes
Aerial photo
No photo
 
Sectional chart

 
Airport distance calculator
Flying to Flaget Memorial Hospital Heliport? Find the distance to fly.

From to 5KY1

Sunrise and sunset
Times for 27-May-2022
 Local
(UTC-4)
 Zulu
(UTC)
Morning civil twilight05:5409:54
Sunrise06:2510:25
Sunset20:5400:54
Evening civil twilight21:2401:24

Current date and time
Zulu (UTC)  27-May-2022 21:56:13
Local (UTC-4)  27-May-2022 17:56:13
 
METAR
KBRY 
3nm S 
272135Z AUTO 27010G16KT 10SM CLR 20/11 A2981 RMK AO1
KEKX 
18nm SW 
272135Z AUTO 25013G18KT 10SM BKN036 OVC045 21/12 A2984 RMK AO2 T02080123
K6I2 
19nm SE 
272135Z AUTO 24011G15KT 10SM FEW039 SCT075 20/14 A2984 RMK AO2
TAF
KFTK 
21nm W 
271900Z 2719/2901 27010G15KT 9999 SCT030 BKN050 BKN250 QNH2976INS TEMPO 2721/2800 9000 -SHRA OVC025 BECMG 2805/2806 31006KT 9999 BKN015 QNH2988INS BECMG 2811/2812 VRB06KT 9999 FEW025 SCT050 QNH2991INS TX22/2819Z TN12/2811Z LAST NO AMDS AFT 2803 NEXT 3111
KSDF 
22nm NW 
271730Z 2718/2824 25012G16KT P6SM VCSH SCT025 OVC040 FM272100 27013G19KT P6SM VCSH BKN025 FM280000 29009G14KT P6SM OVC019 FM280600 31005KT P6SM SCT020 BKN040 FM281300 30004KT P6SM SCT050
NOTAMs
Click for the latest NOTAMs
NOTAMs are issued by the DoD/FAA and will open in a separate window not controlled by AirNav.

 

 
 

Would you like to see your business listed on this page?

 If your business provides an interesting product or service to pilots, flight crews, aircraft, or users of the Flaget Memorial Hospital Heliport, you should consider listing it here.  To start the listing process, click on the button below
 
Add a business
 

Other Pages about Flaget Memorial Hospital Heliport

Update a link
 
Copyright © AirNav, LLC. All rights reserved. Privacy Policy  Contact